createdAt,value
2022-08-28T00:01:02.462Z,19.12
2022-08-28T00:03:30.497Z,19.10
2022-08-28T00:05:58.332Z,19.12
2022-08-28T00:08:26.019Z,19.09
2022-08-28T00:10:53.927Z,19.10
2022-08-28T00:13:25.346Z,19.07
2022-08-28T00:15:54.864Z,19.05
2022-08-28T00:18:23.211Z,19.02
2022-08-28T00:20:53.161Z,19.06
2022-08-28T00:23:21.854Z,19.03
2022-08-28T00:25:49.574Z,19.03
2022-08-28T00:28:24.325Z,19.04
2022-08-28T00:30:55.686Z,19.04
2022-08-28T00:33:24.406Z,18.99
2022-08-28T00:35:52.597Z,18.95
2022-08-28T00:38:21.038Z,18.96
2022-08-28T00:40:50.360Z,18.98
2022-08-28T00:43:24.215Z,18.93
2022-08-28T00:45:53.432Z,18.97
2022-08-28T00:48:21.073Z,18.95
2022-08-28T00:51:05.614Z,18.97
2022-08-28T00:53:33.339Z,18.89
2022-08-28T00:56:04.075Z,18.85
2022-08-28T00:58:34.771Z,18.83
2022-08-28T01:01:04.230Z,18.78
2022-08-28T01:03:31.902Z,18.77
2022-08-28T01:06:00.041Z,18.76
2022-08-28T01:08:30.280Z,18.78
2022-08-28T01:10:59.331Z,18.77
2022-08-28T01:13:27.650Z,18.76
2022-08-28T01:15:56.071Z,18.74
2022-08-28T01:18:26.081Z,18.70
2022-08-28T01:20:56.723Z,18.71
2022-08-28T01:23:29.745Z,18.71
2022-08-28T01:26:00.179Z,18.65
2022-08-28T01:28:29.114Z,18.65
2022-08-28T01:30:58.934Z,18.68
2022-08-28T01:33:28.244Z,18.66
2022-08-28T01:35:56.662Z,18.60
2022-08-28T01:38:26.767Z,18.57
2022-08-28T01:40:57.222Z,18.56
2022-08-28T01:43:27.603Z,18.49
2022-08-28T01:45:57.784Z,18.49
2022-08-28T01:48:27.416Z,18.48
2022-08-28T01:50:55.323Z,18.43
2022-08-28T01:53:24.917Z,18.43
2022-08-28T01:55:53.477Z,18.44
2022-08-28T01:58:21.811Z,18.39
2022-08-28T02:00:50.800Z,18.37
2022-08-28T02:03:18.469Z,18.39
2022-08-28T02:05:46.847Z,18.38
2022-08-28T02:08:15.060Z,18.39
2022-08-28T02:10:44.541Z,18.38
2022-08-28T02:13:12.697Z,18.34
2022-08-28T02:15:41.775Z,18.33
2022-08-28T02:18:11.005Z,18.32
2022-08-28T02:20:39.195Z,18.32
2022-08-28T02:23:07.093Z,18.33
2022-08-28T02:25:34.711Z,18.29
2022-08-28T02:28:02.579Z,18.28
2022-08-28T02:30:30.481Z,18.22
2022-08-28T02:32:58.123Z,18.20
2022-08-28T02:35:27.153Z,18.20
2022-08-28T02:37:55.548Z,18.17
2022-08-28T02:40:24.219Z,18.15
2022-08-28T02:42:52.285Z,18.16
2022-08-28T02:45:20.702Z,18.16
2022-08-28T02:47:48.886Z,18.16
2022-08-28T02:50:17.943Z,18.13
2022-08-28T02:52:47.471Z,18.11
2022-08-28T02:55:17.279Z,18.08
2022-08-28T02:57:44.875Z,18.10
2022-08-28T03:00:14.203Z,18.05
2022-08-28T03:02:42.563Z,18.01
2022-08-28T03:05:11.143Z,18.06
2022-08-28T03:07:38.767Z,18.03
2022-08-28T03:10:08.678Z,18.05
2022-08-28T03:12:36.457Z,17.98
2022-08-28T03:15:05.966Z,17.95
2022-08-28T03:17:33.621Z,17.97
2022-08-28T03:20:01.324Z,17.92
2022-08-28T03:22:42.811Z,17.91
2022-08-28T03:25:12.670Z,17.85
2022-08-28T03:27:40.274Z,17.80
2022-08-28T03:30:08.805Z,17.77
2022-08-28T03:32:36.801Z,17.79
2022-08-28T03:35:05.457Z,17.78
2022-08-28T03:37:33.171Z,17.77
2022-08-28T03:40:01.351Z,17.76
2022-08-28T03:42:31.079Z,17.72
2022-08-28T03:45:00.466Z,17.70
2022-08-28T03:47:29.624Z,17.67
2022-08-28T03:49:57.851Z,17.63
2022-08-28T03:52:26.019Z,17.65
2022-08-28T03:54:53.662Z,17.56
2022-08-28T03:57:22.035Z,17.58
2022-08-28T03:59:52.066Z,17.58
2022-08-28T04:02:20.498Z,17.58
2022-08-28T04:04:48.508Z,17.55
2022-08-28T04:07:16.238Z,17.52
2022-08-28T04:09:43.898Z,17.49
2022-08-28T04:12:11.691Z,17.46
2022-08-28T04:14:39.403Z,17.46
2022-08-28T04:17:08.838Z,17.44
2022-08-28T04:19:36.507Z,17.41
2022-08-28T04:22:04.117Z,17.39
2022-08-28T04:24:32.035Z,17.38
2022-08-28T04:26:59.712Z,17.32
2022-08-28T04:29:27.411Z,17.33
2022-08-28T04:31:56.272Z,17.33
2022-08-28T04:34:25.256Z,17.31
2022-08-28T04:36:52.839Z,17.31
2022-08-28T04:39:20.662Z,17.28
2022-08-28T04:41:50.032Z,17.26
2022-08-28T04:44:18.073Z,17.25
2022-08-28T04:46:48.256Z,17.26
2022-08-28T04:49:16.353Z,17.25
2022-08-28T04:51:45.308Z,17.09
2022-08-28T04:54:14.883Z,17.15
2022-08-28T04:56:42.579Z,17.13
2022-08-28T04:59:11.620Z,17.14
2022-08-28T05:01:39.305Z,17.14
2022-08-28T05:04:06.953Z,17.11
2022-08-28T05:06:34.606Z,17.13
2022-08-28T05:09:04.580Z,17.16
2022-08-28T05:11:34.615Z,17.19
2022-08-28T05:14:04.263Z,17.16
2022-08-28T05:16:32.142Z,17.15
2022-08-28T05:19:00.286Z,17.23
2022-08-28T05:21:28.227Z,17.19
2022-08-28T05:23:57.687Z,17.17
2022-08-28T05:26:28.338Z,17.19
2022-08-28T05:28:58.002Z,17.18
2022-08-28T05:31:26.585Z,17.21
2022-08-28T05:33:54.368Z,17.23
2022-08-28T05:36:23.118Z,17.32
2022-08-28T05:38:56.840Z,17.30
2022-08-28T05:41:26.877Z,17.46
2022-08-28T05:43:55.523Z,17.51
2022-08-28T05:46:23.430Z,17.56
2022-08-28T05:48:51.187Z,17.52
2022-08-28T05:51:20.059Z,17.45
2022-08-28T05:53:50.056Z,17.54
2022-08-28T05:56:18.592Z,17.62
2022-08-28T05:58:47.504Z,17.59
2022-08-28T06:01:17.574Z,17.62
2022-08-28T06:03:47.853Z,17.75
2022-08-28T06:06:15.471Z,17.87
2022-08-28T06:08:58.533Z,17.95
2022-08-28T06:11:27.278Z,18.15
2022-08-28T06:14:01.805Z,18.23
2022-08-28T06:16:31.339Z,18.35
2022-08-28T06:18:59.485Z,18.52
2022-08-28T06:21:27.413Z,18.29
2022-08-28T06:23:55.060Z,18.73
2022-08-28T06:26:22.925Z,18.71
2022-08-28T06:28:51.127Z,19.10
2022-08-28T06:31:23.408Z,18.72
2022-08-28T06:33:53.871Z,18.80
2022-08-28T06:36:21.437Z,19.01
2022-08-28T06:38:49.080Z,18.93
2022-08-28T06:41:17.015Z,19.18
2022-08-28T06:43:44.645Z,20.18
2022-08-28T06:46:12.363Z,20.60
2022-08-28T06:48:41.449Z,21.08
2022-08-28T06:51:10.460Z,21.53
2022-08-28T06:53:38.888Z,20.90
2022-08-28T06:56:08.446Z,21.14
2022-08-28T06:58:36.923Z,20.96
2022-08-28T07:01:05.606Z,20.56
2022-08-28T07:03:33.392Z,19.98
2022-08-28T07:06:03.368Z,20.34
2022-08-28T07:08:31.673Z,20.70
2022-08-28T07:10:59.779Z,20.67
2022-08-28T07:13:32.112Z,21.25
2022-08-28T07:16:01.422Z,21.42
2022-08-28T07:18:29.107Z,21.40
2022-08-28T07:20:57.352Z,22.00
2022-08-28T07:23:26.392Z,22.47
2022-08-28T07:25:54.052Z,22.39
2022-08-28T07:28:21.762Z,22.81
2022-08-28T07:30:56.629Z,22.94
2022-08-28T07:33:24.316Z,24.08
2022-08-28T07:35:51.939Z,24.00
2022-08-28T07:38:19.693Z,23.73
2022-08-28T07:40:48.724Z,24.16
2022-08-28T07:43:34.231Z,24.70
2022-08-28T07:46:02.561Z,24.66
2022-08-28T07:48:30.187Z,24.92
2022-08-28T07:50:57.823Z,24.70
2022-08-28T07:53:25.483Z,25.23
2022-08-28T07:55:54.511Z,25.08
2022-08-28T07:58:22.505Z,24.75
2022-08-28T08:00:50.130Z,25.24
2022-08-28T08:03:17.745Z,25.04
2022-08-28T08:05:52.637Z,23.92
2022-08-28T08:08:20.328Z,24.99
2022-08-28T08:10:57.609Z,25.37
2022-08-28T08:13:25.314Z,25.56
2022-08-28T08:15:53.162Z,25.19
2022-08-28T08:18:20.898Z,24.41
2022-08-28T08:20:52.521Z,24.77
2022-08-28T08:23:20.127Z,25.49
2022-08-28T08:25:54.842Z,25.09
2022-08-28T08:28:24.169Z,25.85
2022-08-28T08:30:52.093Z,26.42
2022-08-28T08:33:20.203Z,26.61
2022-08-28T08:35:47.834Z,26.02
2022-08-28T08:38:15.535Z,25.78
2022-08-28T08:40:43.235Z,26.63
2022-08-28T08:43:11.125Z,26.51
2022-08-28T08:45:43.012Z,25.87
2022-08-28T08:48:14.206Z,25.50
2022-08-28T08:50:42.303Z,25.11
2022-08-28T08:53:16.197Z,25.87
2022-08-28T08:55:45.118Z,26.76
2022-08-28T08:58:15.759Z,27.22
2022-08-28T09:00:50.780Z,26.86
2022-08-28T09:03:23.096Z,26.54
2022-08-28T09:05:53.479Z,26.48
2022-08-28T09:08:28.427Z,26.49
2022-08-28T09:11:01.741Z,26.16
2022-08-28T09:13:33.227Z,26.50
2022-08-28T09:16:04.869Z,27.34
2022-08-28T09:18:34.552Z,26.56
2022-08-28T09:21:02.442Z,27.01
2022-08-28T09:23:31.362Z,27.41
2022-08-28T09:26:01.722Z,26.98
2022-08-28T09:28:30.669Z,27.10
2022-08-28T09:31:00.373Z,26.45
2022-08-28T09:33:30.261Z,26.04
2022-08-28T09:35:57.989Z,27.08
2022-08-28T09:38:28.297Z,28.54
2022-08-28T09:41:25.195Z,26.61
2022-08-28T09:43:53.023Z,26.85
2022-08-28T09:46:22.997Z,27.49
2022-08-28T09:48:53.055Z,27.87
2022-08-28T09:51:29.437Z,27.54
2022-08-28T09:53:59.494Z,27.67
2022-08-28T09:56:29.521Z,28.08
2022-08-28T09:58:59.646Z,27.89
2022-08-28T10:01:37.513Z,28.11
2022-08-28T10:04:16.718Z,28.13
2022-08-28T10:06:48.893Z,29.22
2022-08-28T10:09:22.593Z,29.14
2022-08-28T10:11:55.450Z,29.18
2022-08-28T10:14:32.532Z,28.16
2022-08-28T10:17:06.005Z,27.59
2022-08-28T10:19:39.807Z,29.27
2022-08-28T10:22:11.967Z,29.05
2022-08-28T10:24:50.082Z,29.08
2022-08-28T10:27:24.444Z,28.21
2022-08-28T10:29:54.274Z,26.32
2022-08-28T10:32:32.958Z,27.78
2022-08-28T10:35:07.000Z,28.27
2022-08-28T10:37:41.481Z,28.00
2022-08-28T10:40:11.835Z,28.73
2022-08-28T10:42:41.740Z,28.34
2022-08-28T10:45:12.900Z,27.87
2022-08-28T10:47:42.759Z,28.21
2022-08-28T10:50:16.249Z,28.23
2022-08-28T10:52:47.021Z,29.08
2022-08-28T10:55:18.783Z,27.73
2022-08-28T10:57:49.027Z,27.07
2022-08-28T11:00:19.782Z,27.54
2022-08-28T11:02:50.164Z,28.28
2022-08-28T11:05:23.384Z,29.38
2022-08-28T11:07:53.605Z,29.13
2022-08-28T11:10:23.917Z,27.85
2022-08-28T11:12:52.720Z,28.73
2022-08-28T11:15:40.810Z,28.46
2022-08-28T11:18:26.630Z,28.10
2022-08-28T11:21:00.902Z,28.22
2022-08-28T11:23:34.105Z,28.68
2022-08-28T11:26:04.659Z,29.13
2022-08-28T11:28:43.804Z,29.41
2022-08-28T11:31:29.522Z,28.77
2022-08-28T11:33:59.148Z,29.16
2022-08-28T11:36:45.523Z,29.38
2022-08-28T11:39:22.763Z,29.41
2022-08-28T11:42:09.332Z,29.73
2022-08-28T11:44:41.933Z,28.48
2022-08-28T11:47:28.334Z,28.83
2022-08-28T11:49:55.989Z,29.43
2022-08-28T11:52:37.487Z,29.56
2022-08-28T11:55:13.045Z,29.82
2022-08-28T11:57:48.046Z,29.52
2022-08-28T12:00:22.160Z,29.10
2022-08-28T12:03:04.683Z,29.62
2022-08-28T12:05:52.267Z,29.61
2022-08-28T12:08:34.751Z,29.97
2022-08-28T12:11:03.998Z,29.92
2022-08-28T12:13:49.004Z,30.01
2022-08-28T12:16:16.658Z,28.36
2022-08-28T12:18:59.184Z,29.09
2022-08-28T12:21:28.640Z,28.30
2022-08-28T12:24:05.327Z,29.36
2022-08-28T12:26:40.200Z,30.07
2022-08-28T12:29:17.878Z,30.39
2022-08-28T12:32:12.524Z,31.21
2022-08-28T12:34:43.568Z,30.44
2022-08-28T12:37:24.552Z,29.97
2022-08-28T12:39:52.960Z,29.14
2022-08-28T12:42:25.475Z,28.93
2022-08-28T12:44:53.396Z,29.29
2022-08-28T12:47:23.588Z,29.35
2022-08-28T12:49:51.263Z,30.14
2022-08-28T12:52:20.371Z,30.28
2022-08-28T12:54:48.694Z,31.14
2022-08-28T12:57:17.735Z,29.86
2022-08-28T12:59:47.396Z,30.58
2022-08-28T13:02:22.018Z,30.75
2022-08-28T13:04:53.585Z,30.50
2022-08-28T13:07:26.267Z,30.33
2022-08-28T13:09:55.284Z,29.51
2022-08-28T13:12:26.982Z,29.61
2022-08-28T13:15:14.162Z,30.88
2022-08-28T13:17:53.023Z,30.01
2022-08-28T13:20:27.636Z,30.01
2022-08-28T13:22:55.717Z,30.13
2022-08-28T13:25:25.405Z,29.67
2022-08-28T13:27:57.583Z,29.35
2022-08-28T13:30:27.500Z,29.78
2022-08-28T13:32:56.752Z,29.12
2022-08-28T13:35:37.983Z,29.73
2022-08-28T13:38:08.183Z,29.93
2022-08-28T13:40:57.478Z,29.16
2022-08-28T13:43:27.216Z,29.34
2022-08-28T13:45:56.314Z,28.52
2022-08-28T13:48:25.174Z,29.75
2022-08-28T13:50:54.477Z,28.93
2022-08-28T13:53:22.090Z,28.53
2022-08-28T13:55:50.345Z,29.12
2022-08-28T13:58:18.131Z,28.70
2022-08-28T14:00:46.910Z,29.05
2022-08-28T14:03:33.795Z,28.98
2022-08-28T14:06:02.476Z,28.55
2022-08-28T14:08:30.422Z,29.17
2022-08-28T14:10:58.313Z,29.17
2022-08-28T14:13:27.616Z,28.28
2022-08-28T14:15:55.612Z,28.80
2022-08-28T14:18:24.789Z,28.98
2022-08-28T14:20:52.438Z,29.10
2022-08-28T14:23:20.281Z,28.72
2022-08-28T14:25:49.067Z,28.98
2022-08-28T14:28:17.076Z,29.44
2022-08-28T14:30:47.093Z,28.96
2022-08-28T14:33:18.552Z,28.53
2022-08-28T14:35:48.756Z,27.27
2022-08-28T14:38:16.652Z,27.53
2022-08-28T14:40:44.721Z,27.76
2022-08-28T14:43:13.440Z,27.18
2022-08-28T14:45:45.764Z,26.73
2022-08-28T14:48:14.355Z,26.70
2022-08-28T14:50:42.416Z,26.83
2022-08-28T14:53:11.657Z,26.22
2022-08-28T14:55:40.636Z,26.26
2022-08-28T14:58:08.318Z,26.39
2022-08-28T15:00:39.335Z,26.19
2022-08-28T15:03:07.676Z,26.02
2022-08-28T15:05:35.512Z,26.47
2022-08-28T15:08:03.427Z,26.43
2022-08-28T15:10:32.370Z,26.23
2022-08-28T15:12:59.956Z,26.10
2022-08-28T15:15:27.690Z,26.08
2022-08-28T15:17:55.327Z,26.12
2022-08-28T15:20:22.970Z,25.84
2022-08-28T15:22:50.548Z,25.97
2022-08-28T15:25:19.058Z,25.79
2022-08-28T15:27:48.040Z,25.93
2022-08-28T15:30:15.660Z,26.00
2022-08-28T15:32:46.040Z,25.79
2022-08-28T15:35:13.625Z,25.66
2022-08-28T15:37:41.234Z,25.43
2022-08-28T15:40:27.061Z,25.46
2022-08-28T15:42:56.076Z,25.26
2022-08-28T15:45:23.684Z,25.43
2022-08-28T15:47:51.607Z,25.66
2022-08-28T15:50:19.996Z,25.53
2022-08-28T15:52:47.956Z,25.39
2022-08-28T15:55:15.616Z,25.29
2022-08-28T15:57:43.230Z,25.31
2022-08-28T16:00:13.457Z,25.43
2022-08-28T16:02:41.068Z,24.98
2022-08-28T16:05:09.060Z,25.27
2022-08-28T16:07:36.675Z,25.33
2022-08-28T16:10:06.950Z,25.19
2022-08-28T16:12:34.853Z,25.06
2022-08-28T16:15:02.723Z,25.01
2022-08-28T16:17:31.877Z,24.69
2022-08-28T16:19:59.435Z,24.76
2022-08-28T16:22:27.531Z,24.68
2022-08-28T16:24:55.176Z,24.89
2022-08-28T16:27:23.798Z,24.78
2022-08-28T16:29:52.986Z,24.66
2022-08-28T16:32:21.261Z,24.86
2022-08-28T16:34:50.634Z,25.01
2022-08-28T16:37:20.843Z,24.70
2022-08-28T16:39:49.349Z,24.56
2022-08-28T16:42:17.434Z,24.59
2022-08-28T16:44:45.074Z,24.85
2022-08-28T16:47:13.105Z,24.60
2022-08-28T16:49:40.753Z,24.82
2022-08-28T16:52:09.789Z,24.70
2022-08-28T16:54:37.610Z,24.74
2022-08-28T16:57:13.720Z,24.77
2022-08-28T16:59:41.348Z,24.73
2022-08-28T17:02:09.753Z,24.29
2022-08-28T17:04:40.921Z,24.46
2022-08-28T17:07:10.079Z,24.33
2022-08-28T17:09:37.637Z,24.38
2022-08-28T17:12:05.354Z,24.31
2022-08-28T17:14:33.443Z,24.13
2022-08-28T17:17:01.065Z,24.07
2022-08-28T17:19:28.934Z,24.00
2022-08-28T17:22:14.091Z,23.93
2022-08-28T17:24:43.091Z,23.91
2022-08-28T17:27:10.782Z,23.71
2022-08-28T17:29:39.206Z,23.90
2022-08-28T17:32:07.878Z,23.81
2022-08-28T17:34:35.880Z,23.63
2022-08-28T17:37:03.962Z,23.52
2022-08-28T17:39:31.744Z,23.48
2022-08-28T17:42:00.943Z,23.31
2022-08-28T17:44:28.636Z,23.36
2022-08-28T17:46:56.569Z,23.30
2022-08-28T17:49:24.282Z,23.16
2022-08-28T17:51:52.134Z,23.08
2022-08-28T17:54:21.487Z,22.97
2022-08-28T17:56:49.744Z,22.90
2022-08-28T17:59:19.236Z,22.87
2022-08-28T18:01:47.441Z,22.80
2022-08-28T18:04:21.619Z,22.79
2022-08-28T18:06:54.053Z,22.77
2022-08-28T18:09:22.060Z,22.70
2022-08-28T18:11:49.691Z,22.60
2022-08-28T18:14:18.753Z,22.43
2022-08-28T18:16:47.010Z,22.31
2022-08-28T18:19:16.164Z,22.31
2022-08-28T18:21:43.758Z,22.33
2022-08-28T18:24:12.954Z,22.25
2022-08-28T18:26:40.976Z,22.19
2022-08-28T18:29:08.650Z,22.14
2022-08-28T18:31:37.758Z,22.11
2022-08-28T18:34:05.448Z,21.87
2022-08-28T18:36:33.052Z,21.82
2022-08-28T18:39:00.754Z,21.74
2022-08-28T18:41:41.549Z,21.67
2022-08-28T18:44:12.387Z,21.54
2022-08-28T18:46:41.445Z,21.40
2022-08-28T18:49:09.291Z,21.38
2022-08-28T18:51:37.420Z,21.35
2022-08-28T18:54:05.318Z,21.35
2022-08-28T18:56:33.941Z,21.32
2022-08-28T18:59:04.310Z,21.26
2022-08-28T19:01:32.070Z,21.23
2022-08-28T19:04:01.333Z,21.12
2022-08-28T19:06:29.110Z,21.08
2022-08-28T19:08:56.907Z,20.87
2022-08-28T19:11:24.794Z,20.77
2022-08-28T19:13:52.577Z,20.77
2022-08-28T19:16:20.917Z,20.62
2022-08-28T19:18:48.809Z,20.57
2022-08-28T19:21:22.317Z,20.46
2022-08-28T19:23:51.838Z,20.45
2022-08-28T19:26:24.431Z,20.44
2022-08-28T19:28:52.306Z,20.43
2022-08-28T19:31:19.962Z,20.36
2022-08-28T19:33:47.828Z,20.27
2022-08-28T19:36:15.479Z,20.27
2022-08-28T19:38:44.524Z,20.24
2022-08-28T19:41:13.044Z,20.12
2022-08-28T19:43:43.292Z,20.05
2022-08-28T19:46:18.257Z,19.97
2022-08-28T19:48:48.462Z,19.91
2022-08-28T19:51:17.435Z,19.86
2022-08-28T19:53:46.865Z,19.83
2022-08-28T19:56:14.571Z,19.81
2022-08-28T19:58:42.369Z,19.73
2022-08-28T20:01:10.502Z,19.55
2022-08-28T20:03:40.133Z,19.56
2022-08-28T20:06:08.282Z,19.52
2022-08-28T20:08:36.510Z,19.50
2022-08-28T20:11:05.678Z,19.49
2022-08-28T20:13:33.561Z,19.43
2022-08-28T20:16:04.412Z,19.37
2022-08-28T20:18:33.319Z,19.39
2022-08-28T20:21:01.858Z,19.34
2022-08-28T20:23:29.612Z,19.22
2022-08-28T20:25:57.231Z,19.21
2022-08-28T20:28:26.279Z,19.18
2022-08-28T20:30:53.973Z,19.11
2022-08-28T20:33:22.440Z,19.06
2022-08-28T20:35:59.980Z,19.09
2022-08-28T20:38:27.748Z,19.01
2022-08-28T20:41:03.163Z,18.93
2022-08-28T20:43:32.429Z,18.92
2022-08-28T20:46:00.749Z,18.78
2022-08-28T20:48:28.811Z,18.70
2022-08-28T20:50:56.778Z,18.59
2022-08-28T20:53:36.949Z,18.56
2022-08-28T20:56:06.835Z,18.39
2022-08-28T20:58:36.084Z,18.39
2022-08-28T21:01:04.322Z,18.34
2022-08-28T21:03:32.031Z,18.31
2022-08-28T21:05:59.641Z,18.28
2022-08-28T21:08:27.220Z,18.24
2022-08-28T21:10:54.906Z,18.16
2022-08-28T21:13:23.631Z,18.15
2022-08-28T21:15:52.605Z,18.09
2022-08-28T21:18:20.209Z,18.08
2022-08-28T21:20:48.064Z,17.94
2022-08-28T21:23:16.153Z,17.94
2022-08-28T21:25:43.833Z,17.94
2022-08-28T21:28:11.435Z,17.86
2022-08-28T21:30:41.435Z,17.85
2022-08-28T21:33:10.463Z,17.74
2022-08-28T21:35:38.127Z,17.69
2022-08-28T21:38:05.708Z,17.63
2022-08-28T21:40:35.162Z,17.57
2022-08-28T21:43:03.132Z,17.53
2022-08-28T21:45:30.885Z,17.52
2022-08-28T21:47:58.515Z,17.49
2022-08-28T21:50:29.018Z,17.39
2022-08-28T21:52:56.741Z,17.39
2022-08-28T21:55:24.880Z,17.38
2022-08-28T21:57:52.560Z,17.30
2022-08-28T22:00:21.622Z,17.30
2022-08-28T22:02:49.416Z,17.29
2022-08-28T22:05:17.193Z,17.32
2022-08-28T22:07:46.347Z,17.29
2022-08-28T22:10:14.939Z,17.27
2022-08-28T22:12:42.754Z,17.33
2022-08-28T22:15:10.607Z,17.32
2022-08-28T22:17:38.479Z,17.24
2022-08-28T22:20:06.408Z,17.24
2022-08-28T22:22:51.316Z,17.24
2022-08-28T22:25:20.374Z,17.16
2022-08-28T22:27:47.999Z,17.03
2022-08-28T22:30:15.632Z,16.97
2022-08-28T22:32:45.197Z,16.97
2022-08-28T22:35:12.904Z,16.86
2022-08-28T22:37:40.770Z,16.83
2022-08-28T22:40:13.275Z,16.78
2022-08-28T22:42:42.939Z,16.67
2022-08-28T22:45:11.158Z,16.70
2022-08-28T22:47:39.525Z,16.64
2022-08-28T22:50:07.687Z,16.64
2022-08-28T22:52:35.289Z,16.65
2022-08-28T22:55:02.866Z,16.60
2022-08-28T22:57:34.341Z,16.41
2022-08-28T23:00:04.633Z,16.38
2022-08-28T23:02:32.327Z,16.36
2022-08-28T23:04:59.940Z,16.37
2022-08-28T23:07:27.547Z,16.31
2022-08-28T23:09:55.552Z,16.16
2022-08-28T23:12:23.251Z,16.14
2022-08-28T23:14:50.940Z,16.03
2022-08-28T23:17:20.312Z,15.98
2022-08-28T23:19:48.131Z,15.95
2022-08-28T23:22:16.011Z,15.93
2022-08-28T23:24:43.674Z,15.86
2022-08-28T23:27:34.875Z,15.82
2022-08-28T23:29:58.934Z,15.72
2022-08-28T23:32:27.946Z,15.78
2022-08-28T23:34:56.002Z,15.62
2022-08-28T23:37:23.622Z,15.58
2022-08-28T23:39:51.261Z,15.53
2022-08-28T23:42:22.131Z,15.53
2022-08-28T23:44:49.934Z,15.52
2022-08-28T23:47:17.602Z,15.45
2022-08-28T23:49:47.245Z,15.43
2022-08-28T23:52:14.882Z,15.40
2022-08-28T23:54:42.489Z,15.36
2022-08-28T23:57:11.094Z,15.35
2022-08-28T23:59:38.881Z,15.39
